createdAt,value
2022-12-12T00:01:04.355Z,4.40
2022-12-12T00:03:32.993Z,4.40
2022-12-12T00:06:04.930Z,4.40
2022-12-12T00:08:33.043Z,4.40
2022-12-12T00:11:01.267Z,4.40
2022-12-12T00:13:29.309Z,4.40
2022-12-12T00:15:57.413Z,4.40
2022-12-12T00:18:25.494Z,4.40
2022-12-12T00:20:54.357Z,4.30
2022-12-12T00:23:24.382Z,4.30
2022-12-12T00:25:56.881Z,4.30
2022-12-12T00:28:25.395Z,4.30
2022-12-12T00:30:53.917Z,4.30
2022-12-12T00:33:21.974Z,4.30
2022-12-12T00:35:51.926Z,4.30
2022-12-12T00:38:20.149Z,4.30
2022-12-12T00:40:50.913Z,4.30
2022-12-12T00:43:18.983Z,4.30
2022-12-12T00:45:47.049Z,4.30
2022-12-12T00:48:15.115Z,4.30
2022-12-12T00:50:43.439Z,4.30
2022-12-12T00:53:11.607Z,4.30
2022-12-12T00:55:39.995Z,4.20
2022-12-12T00:58:09.442Z,4.30
2022-12-12T01:00:40.503Z,4.30
2022-12-12T01:03:08.950Z,4.30
2022-12-12T01:05:38.175Z,4.30
2022-12-12T01:08:06.385Z,4.30
2022-12-12T01:10:34.996Z,4.30
2022-12-12T01:13:03.075Z,4.30
2022-12-12T01:15:32.794Z,4.30
2022-12-12T01:18:00.884Z,4.30
2022-12-12T01:20:29.530Z,4.30
2022-12-12T01:22:57.835Z,4.30
2022-12-12T01:25:25.926Z,4.30
2022-12-12T01:27:54.004Z,4.30
2022-12-12T01:30:24.001Z,4.30
2022-12-12T01:32:55.071Z,4.40
2022-12-12T01:35:23.842Z,4.30
2022-12-12T01:37:51.941Z,4.40
2022-12-12T01:40:23.558Z,4.40
2022-12-12T01:42:51.975Z,4.40
2022-12-12T01:46:25.715Z,4.30
2022-12-12T01:48:58.509Z,4.30
2022-12-12T01:51:28.470Z,4.30
2022-12-12T01:54:02.370Z,4.30
2022-12-12T01:56:31.129Z,4.30
2022-12-12T01:59:01.253Z,4.30
2022-12-12T02:01:29.517Z,4.30
2022-12-12T02:04:00.059Z,4.30
2022-12-12T02:06:30.252Z,4.30
2022-12-12T02:09:01.717Z,4.30
2022-12-12T02:11:42.554Z,4.30
2022-12-12T02:14:10.777Z,4.30
2022-12-12T02:16:56.595Z,4.30
2022-12-12T02:19:55.255Z,4.30
2022-12-12T02:22:39.310Z,4.30
2022-12-12T02:25:40.081Z,4.30
2022-12-12T02:28:39.957Z,4.30
2022-12-12T02:31:16.654Z,4.20
2022-12-12T02:33:54.625Z,4.30
2022-12-12T02:36:31.255Z,4.30
2022-12-12T02:39:07.839Z,4.20
2022-12-12T02:41:41.965Z,4.30
2022-12-12T02:44:19.855Z,4.20
2022-12-12T02:46:55.148Z,4.20
2022-12-12T02:49:26.503Z,4.20
2022-12-12T02:51:56.076Z,4.20
2022-12-12T02:54:24.934Z,4.10
2022-12-12T02:56:55.783Z,4.10
2022-12-12T02:59:29.083Z,4.10
2022-12-12T03:02:33.217Z,4.00
2022-12-12T03:05:45.873Z,4.00
2022-12-12T03:08:27.328Z,4.00
2022-12-12T03:10:59.640Z,4.00
2022-12-12T03:13:35.050Z,4.00
2022-12-12T03:16:16.708Z,4.00
2022-12-12T03:18:56.871Z,4.00
2022-12-12T03:21:30.666Z,4.10
2022-12-12T03:24:03.941Z,4.10
2022-12-12T03:26:38.630Z,4.00
2022-12-12T03:29:10.321Z,4.10
2022-12-12T03:31:41.581Z,4.10
2022-12-12T03:34:16.569Z,4.10
2022-12-12T03:36:49.487Z,4.10
2022-12-12T03:39:24.912Z,4.10
2022-12-12T03:41:59.250Z,4.10
2022-12-12T03:44:38.130Z,4.20
2022-12-12T03:47:14.498Z,4.10
2022-12-12T03:49:49.469Z,4.10
2022-12-12T03:52:22.464Z,4.10
2022-12-12T03:54:54.816Z,4.10
2022-12-12T03:57:28.265Z,4.10
2022-12-12T04:00:03.346Z,4.10
2022-12-12T04:02:38.220Z,4.10
2022-12-12T04:05:17.474Z,4.20
2022-12-12T04:07:49.591Z,4.20
2022-12-12T04:10:35.390Z,4.20
2022-12-12T04:13:12.112Z,4.20
2022-12-12T04:15:58.445Z,4.20
2022-12-12T04:18:34.469Z,4.20
2022-12-12T04:21:34.481Z,4.20
2022-12-12T04:24:08.380Z,4.20
2022-12-12T04:26:41.907Z,4.20
2022-12-12T04:29:24.925Z,4.20
2022-12-12T04:31:59.093Z,4.20
2022-12-12T04:34:36.121Z,4.20
2022-12-12T04:37:07.773Z,4.20
2022-12-12T04:39:38.767Z,4.20
2022-12-12T04:42:08.700Z,4.20
2022-12-12T04:44:41.276Z,4.20
2022-12-12T04:47:11.072Z,4.20
2022-12-12T04:49:41.799Z,4.20
2022-12-12T04:52:13.639Z,4.20
2022-12-12T04:54:46.204Z,4.20
2022-12-12T04:57:18.471Z,4.20
2022-12-12T04:59:46.701Z,4.20
2022-12-12T05:02:22.176Z,4.30
2022-12-12T05:04:55.180Z,4.30
2022-12-12T05:07:36.430Z,4.30
2022-12-12T05:10:11.351Z,4.30
2022-12-12T05:12:44.966Z,4.40
2022-12-12T05:15:14.325Z,4.40
2022-12-12T05:17:45.934Z,4.40
2022-12-12T05:20:14.549Z,4.40
2022-12-12T05:22:44.010Z,4.40
2022-12-12T05:25:12.580Z,4.40
2022-12-12T05:27:40.813Z,4.40
2022-12-12T05:30:10.136Z,4.40
2022-12-12T05:32:38.223Z,4.40
2022-12-12T05:35:07.717Z,4.40
2022-12-12T05:37:35.783Z,4.40
2022-12-12T05:40:05.781Z,4.40
2022-12-12T05:42:33.928Z,4.40
2022-12-12T05:45:02.068Z,4.30
2022-12-12T05:47:30.115Z,4.40
2022-12-12T05:49:58.227Z,4.40
2022-12-12T05:52:26.406Z,4.30
2022-12-12T05:54:54.586Z,4.30
2022-12-12T05:57:24.022Z,4.30
2022-12-12T05:59:52.114Z,4.30
2022-12-12T06:02:20.198Z,4.40
2022-12-12T06:04:48.264Z,4.30
2022-12-12T06:07:16.324Z,4.30
2022-12-12T06:09:44.355Z,4.40
2022-12-12T06:12:12.380Z,4.40
2022-12-12T06:14:41.819Z,4.40
2022-12-12T06:17:09.854Z,4.30
2022-12-12T06:19:38.200Z,4.30
2022-12-12T06:22:06.456Z,4.30
2022-12-12T06:24:34.486Z,4.40
2022-12-12T06:27:02.523Z,4.30
2022-12-12T06:29:30.546Z,4.30
2022-12-12T06:32:00.082Z,4.30
2022-12-12T06:34:28.178Z,4.30
2022-12-12T06:36:56.286Z,4.30
2022-12-12T06:39:24.391Z,4.30
2022-12-12T06:41:52.474Z,4.30
2022-12-12T06:44:20.510Z,4.20
2022-12-12T06:46:48.573Z,4.30
2022-12-12T06:49:18.028Z,4.30
2022-12-12T06:51:46.282Z,4.30
2022-12-12T06:54:15.571Z,4.30
2022-12-12T06:56:48.180Z,4.20
2022-12-12T06:59:17.663Z,4.20
2022-12-12T07:01:45.982Z,4.20
2022-12-12T07:04:14.959Z,4.20
2022-12-12T07:06:44.537Z,4.20
2022-12-12T07:09:13.073Z,4.20
2022-12-12T07:11:42.116Z,4.10
2022-12-12T07:14:11.732Z,4.10
2022-12-12T07:16:40.164Z,4.10
2022-12-12T07:19:08.247Z,4.00
2022-12-12T07:21:36.328Z,4.00
2022-12-12T07:24:06.157Z,3.90
2022-12-12T07:26:34.338Z,3.90
2022-12-12T07:29:05.208Z,3.80
2022-12-12T07:31:33.634Z,3.80
2022-12-12T07:34:01.725Z,3.70
2022-12-12T07:36:30.271Z,3.70
2022-12-12T07:38:58.478Z,3.60
2022-12-12T07:41:27.918Z,3.60
2022-12-12T07:43:55.958Z,3.50
2022-12-12T07:46:26.069Z,3.50
2022-12-12T07:48:55.201Z,3.50
2022-12-12T07:51:23.928Z,3.50
2022-12-12T07:53:52.023Z,3.40
2022-12-12T07:56:20.987Z,3.40
2022-12-12T07:58:51.156Z,3.40
2022-12-12T08:01:20.770Z,3.30
2022-12-12T08:03:49.971Z,3.30
2022-12-12T08:06:19.846Z,3.20
2022-12-12T08:08:49.792Z,3.20
2022-12-12T08:11:21.005Z,3.20
2022-12-12T08:13:50.802Z,3.20
2022-12-12T08:16:22.020Z,3.10
2022-12-12T08:18:50.350Z,3.10
2022-12-12T08:21:25.203Z,3.10
2022-12-12T08:23:57.190Z,3.10
2022-12-12T08:26:25.950Z,3.00
2022-12-12T08:28:55.489Z,3.00
2022-12-12T08:31:24.733Z,2.90
2022-12-12T08:33:53.356Z,2.90
2022-12-12T08:36:23.938Z,2.90
2022-12-12T08:38:52.488Z,2.80
2022-12-12T08:41:21.169Z,2.80
2022-12-12T08:43:49.825Z,2.80
2022-12-12T08:46:21.102Z,2.80
2022-12-12T08:48:50.133Z,2.80
2022-12-12T08:51:19.216Z,2.90
2022-12-12T08:53:47.609Z,2.90
2022-12-12T08:56:16.386Z,2.90
2022-12-12T08:58:45.762Z,3.00
2022-12-12T09:01:15.514Z,3.00
2022-12-12T09:03:45.386Z,3.00
2022-12-12T09:06:14.184Z,3.10
2022-12-12T09:08:42.639Z,3.10
2022-12-12T09:11:11.222Z,3.10
2022-12-12T09:13:39.913Z,3.20
2022-12-12T09:16:09.728Z,3.20
2022-12-12T09:18:40.806Z,3.30
2022-12-12T09:21:14.428Z,3.30
2022-12-12T09:23:42.471Z,3.40
2022-12-12T09:26:11.080Z,3.40
2022-12-12T09:28:39.119Z,3.50
2022-12-12T09:31:08.536Z,3.50
2022-12-12T09:33:37.118Z,3.60
2022-12-12T09:36:07.072Z,3.60
2022-12-12T09:38:37.378Z,3.80
2022-12-12T09:41:13.252Z,4.20
2022-12-12T09:43:49.058Z,4.90
2022-12-12T09:46:28.759Z,5.40
2022-12-12T09:49:03.752Z,5.80
2022-12-12T09:51:32.086Z,6.00
2022-12-12T09:54:01.734Z,6.00
2022-12-12T09:56:37.921Z,6.00
2022-12-12T09:59:12.714Z,6.00
2022-12-12T10:01:52.115Z,5.90
2022-12-12T10:04:29.509Z,5.80
2022-12-12T10:07:02.393Z,5.70
2022-12-12T10:09:47.395Z,5.60
2022-12-12T10:12:18.035Z,5.40
2022-12-12T10:14:49.506Z,5.40
2022-12-12T10:17:20.042Z,5.20
2022-12-12T10:19:51.711Z,5.10
2022-12-12T10:22:26.987Z,5.00
2022-12-12T10:25:01.393Z,4.90
2022-12-12T10:27:30.587Z,4.90
2022-12-12T10:30:08.167Z,4.80
2022-12-12T10:32:45.697Z,4.80
2022-12-12T10:35:26.314Z,4.70
2022-12-12T10:38:08.310Z,4.70
2022-12-12T10:40:49.670Z,4.70
2022-12-12T10:43:22.419Z,4.70
2022-12-12T10:46:08.460Z,4.70
2022-12-12T10:48:36.628Z,4.70
2022-12-12T10:51:07.264Z,4.60
2022-12-12T10:53:36.114Z,4.60
2022-12-12T10:56:09.024Z,4.60
2022-12-12T10:58:39.665Z,4.60
2022-12-12T11:01:14.788Z,4.50
2022-12-12T11:03:47.814Z,4.50
2022-12-12T11:06:20.054Z,4.50
2022-12-12T11:08:56.127Z,4.50
2022-12-12T11:11:27.900Z,4.50
2022-12-12T11:13:57.569Z,4.50
2022-12-12T11:16:27.757Z,4.50
2022-12-12T11:19:06.131Z,4.50
2022-12-12T11:21:36.890Z,4.50
2022-12-12T11:24:09.751Z,4.60
2022-12-12T11:26:45.536Z,4.60
2022-12-12T11:29:32.450Z,4.60
2022-12-12T11:32:01.367Z,4.60
2022-12-12T11:34:33.925Z,4.60
2022-12-12T11:37:02.389Z,4.60
2022-12-12T11:39:35.205Z,4.60
2022-12-12T11:42:06.851Z,4.70
2022-12-12T11:44:37.402Z,4.70
2022-12-12T11:47:24.116Z,4.70
2022-12-12T11:49:53.880Z,4.70
2022-12-12T11:52:24.367Z,4.70
2022-12-12T11:54:52.813Z,4.70
2022-12-12T11:57:37.739Z,4.70
2022-12-12T12:00:14.336Z,4.70
2022-12-12T12:03:14.209Z,4.80
2022-12-12T12:05:55.262Z,4.80
2022-12-12T12:08:35.393Z,4.80
2022-12-12T12:11:17.748Z,4.80
2022-12-12T12:13:56.349Z,4.80
2022-12-12T12:16:32.814Z,4.80
2022-12-12T12:19:11.745Z,4.80
2022-12-12T12:21:48.731Z,4.80
2022-12-12T12:24:48.802Z,4.80
2022-12-12T12:27:22.129Z,4.80
2022-12-12T12:30:18.125Z,4.80
2022-12-12T12:33:06.963Z,4.80
2022-12-12T12:35:43.506Z,4.80
2022-12-12T12:38:25.034Z,4.80
2022-12-12T12:41:14.984Z,4.80
2022-12-12T12:43:58.670Z,4.80
2022-12-12T12:46:39.994Z,4.70
2022-12-12T12:49:16.218Z,4.70
2022-12-12T12:51:50.659Z,4.60
2022-12-12T12:54:23.372Z,4.60
2022-12-12T12:56:56.867Z,4.50
2022-12-12T12:59:32.500Z,4.50
2022-12-12T13:02:05.795Z,4.40
2022-12-12T13:04:41.576Z,4.40
2022-12-12T13:07:17.587Z,4.30
2022-12-12T13:09:50.920Z,4.40
2022-12-12T13:12:31.511Z,4.30
2022-12-12T13:15:03.135Z,4.30
2022-12-12T13:17:48.986Z,4.30
2022-12-12T13:20:20.454Z,4.30
2022-12-12T13:23:12.838Z,4.30
2022-12-12T13:25:47.730Z,4.30
2022-12-12T13:28:19.347Z,4.30
2022-12-12T13:31:08.092Z,4.30
2022-12-12T13:33:45.946Z,4.30
2022-12-12T13:36:24.508Z,4.20
2022-12-12T13:38:58.771Z,4.20
2022-12-12T13:41:27.107Z,4.20
2022-12-12T13:43:58.750Z,4.20
2022-12-12T13:46:50.905Z,4.20
2022-12-12T13:49:28.454Z,4.10
2022-12-12T13:52:27.747Z,4.10
2022-12-12T13:55:23.736Z,4.10
2022-12-12T13:58:34.273Z,4.00
2022-12-12T14:01:39.352Z,4.00
2022-12-12T14:04:24.049Z,4.00
2022-12-12T14:07:01.609Z,4.00
2022-12-12T14:09:47.059Z,3.90
2022-12-12T14:12:26.067Z,3.90
2022-12-12T14:15:00.518Z,3.80
2022-12-12T14:17:35.473Z,3.80
2022-12-12T14:20:09.288Z,3.80
2022-12-12T14:23:24.521Z,3.80
2022-12-12T14:25:52.957Z,3.80
2022-12-12T14:28:23.894Z,3.80
2022-12-12T14:31:11.292Z,3.80
2022-12-12T14:34:05.927Z,3.80
2022-12-12T14:37:10.515Z,3.80
2022-12-12T14:40:06.315Z,3.80
2022-12-12T14:43:19.324Z,3.80
2022-12-12T14:45:37.218Z,3.80
2022-12-12T14:48:18.429Z,3.80
2022-12-12T14:50:58.863Z,3.70
2022-12-12T14:53:33.050Z,3.70
2022-12-12T14:56:05.254Z,3.70
2022-12-12T14:58:37.338Z,3.70
2022-12-12T15:01:06.590Z,3.60
2022-12-12T15:03:39.084Z,3.60
2022-12-12T15:06:28.914Z,3.60
2022-12-12T15:08:58.579Z,3.50
2022-12-12T15:11:32.204Z,3.40
2022-12-12T15:14:02.575Z,3.30
2022-12-12T15:16:37.445Z,3.30
2022-12-12T15:19:05.737Z,3.20
2022-12-12T15:21:34.218Z,3.20
2022-12-12T15:24:02.538Z,3.20
2022-12-12T15:26:32.002Z,3.20
2022-12-12T15:29:00.226Z,3.10
2022-12-12T15:31:28.453Z,3.10
2022-12-12T15:33:56.543Z,3.10
2022-12-12T15:36:28.898Z,3.10
2022-12-12T15:39:15.676Z,3.10
2022-12-12T15:41:46.072Z,3.10
2022-12-12T15:44:18.702Z,3.00
2022-12-12T15:46:48.594Z,3.00
2022-12-12T15:49:39.681Z,3.00
2022-12-12T15:52:14.207Z,2.90
2022-12-12T15:54:48.756Z,2.90
2022-12-12T15:57:23.228Z,2.90
2022-12-12T15:59:56.938Z,2.90
2022-12-12T16:02:27.628Z,3.00
2022-12-12T16:04:57.825Z,3.00
2022-12-12T16:07:25.959Z,3.00
2022-12-12T16:10:06.237Z,3.00
2022-12-12T16:12:58.195Z,3.00
2022-12-12T16:15:32.740Z,3.10
2022-12-12T16:18:03.476Z,3.10
2022-12-12T16:20:32.006Z,3.10
2022-12-12T16:23:11.629Z,3.20
2022-12-12T16:25:40.425Z,3.20
2022-12-12T16:28:25.059Z,3.30
2022-12-12T16:30:59.172Z,3.30
2022-12-12T16:33:31.397Z,3.30
2022-12-12T16:36:01.543Z,3.30
2022-12-12T16:38:30.413Z,3.40
2022-12-12T16:41:02.455Z,3.40
2022-12-12T16:43:31.937Z,3.40
2022-12-12T16:46:00.516Z,3.40
2022-12-12T16:48:32.868Z,3.40
2022-12-12T16:51:04.695Z,3.40
2022-12-12T16:53:32.856Z,3.40
2022-12-12T16:56:00.908Z,3.40
2022-12-12T16:58:28.987Z,3.40
2022-12-12T17:00:59.947Z,3.40
2022-12-12T17:03:28.249Z,3.40
2022-12-12T17:05:56.292Z,3.30
2022-12-12T17:08:24.627Z,3.40
2022-12-12T17:11:09.708Z,3.30
2022-12-12T17:13:41.078Z,3.30
2022-12-12T17:16:10.655Z,3.30
2022-12-12T17:18:38.711Z,3.30
2022-12-12T17:21:07.189Z,3.30
2022-12-12T17:23:35.252Z,3.30
2022-12-12T17:26:05.045Z,3.30
2022-12-12T17:28:34.417Z,3.30
2022-12-12T17:31:03.135Z,3.20
2022-12-12T17:33:32.721Z,3.20
2022-12-12T17:36:02.324Z,3.20
2022-12-12T17:38:31.188Z,3.20
2022-12-12T17:40:59.789Z,3.20
2022-12-12T17:43:29.170Z,3.10
2022-12-12T17:46:01.808Z,3.10
2022-12-12T17:48:31.165Z,3.10
2022-12-12T17:51:02.241Z,3.00
2022-12-12T17:53:36.536Z,3.00
2022-12-12T17:56:07.827Z,3.00
2022-12-12T17:58:37.469Z,3.00
2022-12-12T18:01:11.467Z,2.90
2022-12-12T18:03:39.595Z,2.90
2022-12-12T18:06:09.273Z,2.90
2022-12-12T18:08:37.732Z,2.80
2022-12-12T18:11:08.835Z,2.80
2022-12-12T18:13:38.616Z,2.80
2022-12-12T18:16:08.413Z,2.70
2022-12-12T18:18:36.773Z,2.70
2022-12-12T18:21:06.208Z,2.70
2022-12-12T18:23:36.354Z,2.70
2022-12-12T18:26:05.644Z,2.60
2022-12-12T18:28:33.785Z,2.60
2022-12-12T18:31:02.229Z,2.60
2022-12-12T18:33:30.414Z,2.50
2022-12-12T18:36:03.378Z,2.50
2022-12-12T18:38:31.578Z,2.50
2022-12-12T18:41:01.038Z,2.40
2022-12-12T18:43:30.070Z,2.40
2022-12-12T18:46:02.749Z,2.40
2022-12-12T18:48:31.500Z,2.40
2022-12-12T18:51:06.194Z,2.40
2022-12-12T18:53:34.329Z,2.40
2022-12-12T18:56:06.361Z,2.30
2022-12-12T18:58:34.731Z,2.30
2022-12-12T19:01:07.019Z,2.40
2022-12-12T19:03:35.375Z,2.30
2022-12-12T19:06:06.000Z,2.40
2022-12-12T19:08:34.160Z,2.40
2022-12-12T19:11:04.144Z,2.40
2022-12-12T19:13:32.436Z,2.40
2022-12-12T19:16:04.958Z,2.40
2022-12-12T19:18:33.154Z,2.40
2022-12-12T19:21:05.324Z,2.40
2022-12-12T19:23:33.568Z,2.40
2022-12-12T19:26:06.467Z,2.40
2022-12-12T19:28:34.714Z,2.40
2022-12-12T19:31:07.792Z,2.40
2022-12-12T19:33:36.166Z,2.30
2022-12-12T19:36:11.287Z,2.30
2022-12-12T19:38:39.534Z,2.30
2022-12-12T19:41:10.702Z,2.30
2022-12-12T19:43:38.803Z,2.30
2022-12-12T19:46:08.578Z,2.20
2022-12-12T19:48:37.750Z,2.30
2022-12-12T19:51:08.225Z,2.20
2022-12-12T19:53:40.270Z,2.20
2022-12-12T19:56:13.129Z,2.20
2022-12-12T19:58:41.720Z,2.20
2022-12-12T20:01:11.945Z,2.30
2022-12-12T20:03:40.410Z,2.20
2022-12-12T20:06:11.174Z,2.30
2022-12-12T20:08:39.833Z,2.20
2022-12-12T20:11:10.792Z,2.30
2022-12-12T20:13:39.737Z,2.20
2022-12-12T20:16:09.669Z,2.20
2022-12-12T20:18:38.385Z,2.20
2022-12-12T20:21:07.253Z,2.10
2022-12-12T20:23:37.819Z,2.00
2022-12-12T20:26:12.096Z,2.00
2022-12-12T20:28:40.399Z,1.90
2022-12-12T20:31:10.549Z,1.90
2022-12-12T20:33:39.325Z,1.90
2022-12-12T20:36:09.612Z,1.80
2022-12-12T20:38:38.505Z,1.80
2022-12-12T20:41:13.017Z,1.80
2022-12-12T20:43:41.384Z,1.80
2022-12-12T20:46:14.408Z,1.80
2022-12-12T20:48:43.278Z,1.80
2022-12-12T20:51:45.696Z,1.80
2022-12-12T20:54:04.915Z,1.80
2022-12-12T20:56:35.395Z,1.80
2022-12-12T20:59:04.867Z,1.80
2022-12-12T21:01:36.679Z,1.80
2022-12-12T21:04:06.273Z,1.80
2022-12-12T21:06:36.960Z,1.70
2022-12-12T21:09:07.507Z,1.70
2022-12-12T21:11:37.846Z,1.70
2022-12-12T21:14:06.225Z,1.70
2022-12-12T21:16:36.399Z,1.60
2022-12-12T21:19:07.623Z,1.60
2022-12-12T21:21:35.797Z,1.60
2022-12-12T21:24:04.347Z,1.60
2022-12-12T21:26:36.398Z,1.60
2022-12-12T21:29:05.207Z,1.60
2022-12-12T21:31:36.416Z,1.50
2022-12-12T21:34:05.508Z,1.50
2022-12-12T21:36:34.074Z,1.50
2022-12-12T21:39:03.493Z,1.50
2022-12-12T21:41:31.617Z,1.50
2022-12-12T21:44:01.025Z,1.50
2022-12-12T21:46:30.434Z,1.50
2022-12-12T21:49:16.737Z,1.50
2022-12-12T21:51:45.232Z,1.40
2022-12-12T21:54:15.511Z,1.40
2022-12-12T21:56:44.051Z,1.40
2022-12-12T21:59:14.322Z,1.40
2022-12-12T22:01:42.862Z,1.40
2022-12-12T22:04:12.421Z,1.40
2022-12-12T22:06:41.218Z,1.40
2022-12-12T22:09:11.220Z,1.40
2022-12-12T22:11:49.231Z,1.40
2022-12-12T22:14:20.826Z,1.40
2022-12-12T22:16:49.332Z,1.40
2022-12-12T22:19:17.965Z,1.40
2022-12-12T22:21:47.263Z,1.40
2022-12-12T22:24:15.570Z,1.40
2022-12-12T22:26:45.790Z,1.30
2022-12-12T22:29:15.612Z,1.30
2022-12-12T22:31:45.875Z,1.30
2022-12-12T22:34:15.676Z,1.30
2022-12-12T22:36:45.309Z,1.30
2022-12-12T22:39:16.310Z,1.30
2022-12-12T22:41:44.395Z,1.30
2022-12-12T22:44:16.747Z,1.20
2022-12-12T22:46:47.663Z,1.20
2022-12-12T22:49:18.709Z,1.20
2022-12-12T22:51:47.791Z,1.20
2022-12-12T22:54:16.338Z,1.20
2022-12-12T22:56:44.842Z,1.20
2022-12-12T22:59:14.448Z,1.10
2022-12-12T23:01:42.900Z,1.10
2022-12-12T23:04:13.895Z,1.10
2022-12-12T23:06:42.915Z,1.10
2022-12-12T23:09:16.056Z,1.10
2022-12-12T23:11:45.708Z,1.10
2022-12-12T23:14:16.205Z,1.10
2022-12-12T23:16:44.785Z,1.10
2022-12-12T23:19:16.242Z,1.10
2022-12-12T23:21:44.659Z,1.20
2022-12-12T23:24:13.005Z,1.20
2022-12-12T23:26:41.271Z,1.20
2022-12-12T23:29:10.737Z,1.20
2022-12-12T23:31:39.884Z,1.20
2022-12-12T23:34:10.208Z,1.20
2022-12-12T23:36:39.832Z,1.20
2022-12-12T23:39:09.243Z,1.30
2022-12-12T23:41:37.360Z,1.30
2022-12-12T23:44:05.950Z,1.30
2022-12-12T23:46:35.997Z,1.30
2022-12-12T23:49:06.926Z,1.20
2022-12-12T23:51:36.868Z,1.20
2022-12-12T23:54:07.859Z,1.20
2022-12-12T23:56:36.753Z,1.20
2022-12-12T23:59:05.279Z,1.20
